Eduardo Rossi

Olheiro - Newell's Old Boys
23 Abr 2028
Domingo
Processo

Personalidade

Adaptabilidade (1) Ambição (1) Controvérsia (17) Lealdade (13) Pressão (11) Profissionalismo (12) Espírito Esportivo (1) Temperamento (10)

Perfil

Estilo de Treinamento Democrático
Licença Continental B
Determinação 13
Gestão de Pessoas 8
Motivação 9
Disciplina 12
Satisfação no Trabalho
100%
Fadiga
0%
Função Olheiro
Salário 79.2K p/s
Contrato 14.03.2029

Desempenho

Comportamento Bom
Eficácia do Treinamento
61%
Desenvolvimento do Jogador
45%
Prevenção de Lesões
25%
Implementação Tática
70%

Eventos Recentes

Participou de uma reunião de recrutamento agora
Participou de uma reunião de recrutamento 7d atrás
Recomendou um alvo de transferência 7d atrás
Participou de uma reunião de recrutamento 7d atrás
Participou de uma reunião de recrutamento 14d atrás
Recomendou um alvo de transferência 14d atrás
Participou de uma reunião de recrutamento 14d atrás
Participou de uma reunião de recrutamento 21d atrás

Monitorando agora

118
Jogador Clube Status Habilidade Confiança Observado Última observação Último voto
Frank Bogado Atlanta Ativo 91 / 96 30% 1 / 1m 19.04.2028 -
Renzo Conechny Tristán Suárez Ativo 109 / 109 42% 1 / 1m 19.04.2028 -
Martín Álvarez Tristán Suárez Ativo 112 / 112 30% 1 / 1m 19.04.2028 -
Tomás Parmo Independiente Perdido 125 / 127 76% 1 03.12.2027 -
Gastón Benedetti Estudiantes Ativo 121 / 123 40% 2 30.11.2027 -
Gerard Martín Barcelona Ativo 154 / 152 40% 1 30.11.2027 -
Koffi Kouao Neftchi Ativo 133 / 130 40% 1 30.11.2027 -
Tomás Porra Barracas Central Ativo 107 / 113 72% 1 28.06.2027 Aprovar
Lewis Ferguson Bologna Ativo 145 / 142 40% 1 31.05.2027 -
Sebastiano Luperto Cremonese Ativo 132 / 140 40% 1 31.05.2027 -
Niccolò Pierozzi Palermo Ativo 126 / 120 40% 1 31.05.2027 -
Juan Cruz Cerrudo Rosario Central Ativo 111 / 114 30% 1 / 1m 21.04.2027 -
Oscar Belinetz Agropecuario Argentino Ativo 110 / 110 30% 1 / 1m 21.04.2027 -
Matías Noble Almirante Brown Ativo 115 / 115 52% 1 / 1m 21.04.2027 -
Leandro Ciccolini Gimnasia y Esgrima Ativo 123 / 123 30% 1 / 1m 21.04.2027 -
Leon Goretzka Aston Villa Ativo 158 / 152 40% 2 30.11.2026 Mais informações
Anel Ahmedhodžić Burnley Ativo 127 / 143 40% 1 30.11.2026 -
Armando Broja Burnley Ativo 144 / 135 40% 3 29.11.2026 -
Hwang Hee-Chan Wolverhampton Ativo 145 / 133 40% 1 29.11.2026 -
Manu Morlanes Mallorca Ativo 140 / 130 40% 3 28.11.2026 -
Valentín Gómez Betis Ativo 142 / 144 40% 2 28.11.2026 -
Gedson Fernandes Spartak Moscow Ativo 129 / 145 40% 2 26.11.2026 -
Álex Centelles Levski Ativo 117 / 132 40% 1 26.11.2026 -
Patrick Cutrone Monza Ativo 123 / 123 40% 2 25.11.2026 -
Amir Hossein Hosseinzadeh Tractor Ativo 121 / 130 40% 1 25.11.2026 -
Bertrand Traoré Sunderland Ativo 133 / 131 40% 1 25.11.2026 -
Callum Brittain Middlesbrough Ativo 121 / 133 40% 1 24.11.2026 -
Ilyas Ansah Hull City Perdido 123 / 125 40% 2 21.11.2026 -
Joe Gelhardt Hull City Ativo 140 / 137 40% 1 21.11.2026 -
Kristoffer Lund Birmingham Ativo 129 / 134 40% 1 20.11.2026 -
Paik Seung-Ho Birmingham Ativo 129 / 121 40% 2 19.11.2026 -
Kenny Tete Fulham Ativo 141 / 149 40% 1 19.11.2026 -
Oli McBurnie Hull City Ativo 139 / 125 40% 2 18.11.2026 -
Jack Currie Oxford United Ativo 112 / 124 40% 1 18.11.2026 -
César Pérez Defensa y Justicia Ativo 121 / 124 40% 1 18.11.2026 -
Santiago Castro AS Roma Ativo 143 / 143 40% 1 15.11.2026 -
Ronnie Edwards Queens Park Rangers Ativo 137 / 122 40% 1 12.11.2026 -
Brooke Norton-Cuffy Hull City Ativo 132 / 147 40% 2 09.11.2026 -
Harry Clarke Preston Ativo 137 / 126 40% 1 09.11.2026 -
Gustavo Hamer Sheffield United Ativo 125 / 128 40% 1 09.11.2026 -
Rúben Neves Al-Hilal Ativo 143 / 143 40% 2 08.11.2026 -
Di'Shon Bernard Sheffield Wednesday Ativo 116 / 113 40% 2 08.11.2026 -
Brian Brobbey Sunderland Ativo 147 / 147 40% 1 08.11.2026 -
Adrián Sánchez Belgrano Ativo 128 / 117 40% 1 08.11.2026 -
Dennis Cirkin Queens Park Rangers Ativo 121 / 117 40% 1 08.11.2026 -
Juan Saborido Platense Ativo 118 / 123 40% 2 04.11.2026 -
Joao Ortiz Portland Timbers Ativo 124 / 130 40% 1 04.11.2026 -
Dara O'Shea Ipswich Town Ativo 128 / 133 40% 1 04.11.2026 -
Marco Pellegrino Boca Juniors Ativo 128 / 125 40% 1 04.11.2026 -
Max Bird Birmingham Ativo 126 / 138 40% 1 04.11.2026 -
Ethan Pye Stockport County Ativo 123 / 124 40% 1 02.11.2026 -
Rodrigo Huescas FC Copenhagen Ativo 134 / 126 40% 1 02.11.2026 -
Franco Ibarra Rosario Central Ativo 136 / 133 40% 1 02.11.2026 -
Alex Vigo Independiente Rivadavia Ativo 120 / 122 40% 2 30.10.2026 -
Gastón Hernández San Lorenzo Ativo 125 / 131 40% 1 29.10.2026 -
Pablo Felipe West Ham United Ativo 140 / 141 40% 1 28.10.2026 -
Leo Ceara Kashima Antlers Ativo 144 / 131 40% 3 26.10.2026 -
Martín Ojeda Orlando City Ativo 140 / 136 40% 2 26.10.2026 -
Ángel Correa River Plate Ativo 145 / 143 40% 2 26.10.2026 -
Myrto Uzuni Austin FC Ativo 142 / 134 40% 2 23.10.2026 -
Adam Randell Bristol City Ativo 120 / 126 40% 1 23.10.2026 -
Víctor Felipe Méndez Colo-Colo Ativo 125 / 122 40% 1 23.10.2026 -
Matías Galarza Talleres Ativo 127 / 127 40% 1 21.10.2026 -
Jacob Greaves Ipswich Town Ativo 145 / 140 40% 2 20.10.2026 -
César Ibáñez Huracán Ativo 121 / 122 40% 1 20.10.2026 -
Lukas Nmecha Leeds United Ativo 141 / 132 40% 1 19.10.2026 -
Ayrton Costa Boca Juniors Ativo 129 / 130 40% 1 18.10.2026 -
Shea Charles Southampton Ativo 129 / 127 40% 1 18.10.2026 -
Oliver Skipp Leicester City Ativo 133 / 134 40% 1 18.10.2026 -
Thomas Carrique Andorra Ativo 115 / 112 40% 1 17.10.2026 -
Nazareno Colombo Racing Club Ativo 127 / 125 40% 1 17.10.2026 -
Tomás Bottari Independiente Rivadavia Ativo 113 / 121 40% 1 17.10.2026 -
Yoane Wissa Newcastle United Ativo 140 / 133 40% 1 15.10.2026 -
Rodrigo Muniz Fulham Ativo 137 / 143 40% 1 15.10.2026 -
Sergi Palencia Los Angeles Football Club Ativo 118 / 133 40% 1 13.10.2026 -
Pep Biel Charlotte Football Club Ativo 119 / 127 40% 3 12.10.2026 -
Santiago Núñez Estudiantes Ativo 132 / 128 40% 1 10.10.2026 -
Ivan Giraldo Valencia Ativo 126 / 137 40% 1 10.10.2026 -
Omar Campos Cruz Azul Ativo 129 / 116 40% 2 05.10.2026 -
Kevin Álvarez Club America Ativo 128 / 127 40% 1 05.10.2026 -
Yuma Suzuki Kashima Antlers Ativo 140 / 145 40% 2 22.09.2026 -
Alexandr Sobolev Zenit Ativo 136 / 122 40% 1 22.09.2026 -
Facundo Mura Inter Miami CF Ativo 117 / 121 40% 1 19.09.2026 -
Diego Romero Liverpool Montevideo Ativo 112 / 115 40% 1 19.09.2026 -
Geindry Cuervo Envigado Ativo 113 / 104 40% 1 19.09.2026 -
Juan Sierra La Equidad Ativo 131 / 132 40% 2 17.09.2026 -
Erick Aguirre Monterrey Ativo 130 / 126 40% 1 17.09.2026 -
Jorge Sánchez Atlas Ativo 121 / 138 40% 2 16.09.2026 -
Talles Magno New York City Ativo 138 / 132 40% 1 16.09.2026 -
Jermein Peña Junior Ativo 126 / 123 40% 1 15.09.2026 -
Daniel González Universidad Catolica Ativo 122 / 119 40% 1 15.09.2026 -
Ronaldo Pájaro Deportivo Cali Ativo 123 / 113 40% 1 14.09.2026 -
Aníbal Moreno River Plate Ativo 125 / 126 40% 1 13.09.2026 -
Camilo Martinez Cortulua Ativo 126 / 129 40% 1 12.09.2026 -
Kein Sato FC Tokyo Ativo 128 / 121 40% 1 10.09.2026 -
Joaquim Tigres Ativo 122 / 135 40% 1 09.09.2026 -
José Luis Caicedo Barranquilla Ativo 123 / 122 40% 1 09.09.2026 -
Pablo Monroy Pumas UNAM Ativo 112 / 120 40% 1 09.09.2026 -
João Félix Dinamo Moscow Perdido 156 / 160 40% 1 07.09.2026 -
Alexey Miranchuk Atlanta United FC Ativo 143 / 151 40% 2 27.08.2026 -
Diego Rossi Monterrey Ativo 125 / 126 40% 1 27.08.2026 -
Mauro Smarra Deportivo Riestra Ativo 106 / 106 30% 1 / 1m 26.08.2026 -
Clayton Olympiacos Ativo 124 / 139 40% 1 26.08.2026 -
Jota Silva Olympiacos Ativo 139 / 134 40% 2 24.08.2026 -
Mojmír Chytil Slavia Prague Ativo 122 / 139 40% 2 24.08.2026 -
Tomás Rodríguez Nueva Chicago Ativo 100 / 103 42% 1 / 1m 19.08.2026 -
Nicolás Ibáñez Cruz Azul Ativo 123 / 144 40% 1 13.08.2026 -
Nathan Silva Pumas UNAM Ativo 119 / 136 40% 2 10.08.2026 -
Luís Esteves Atlas Ativo 138 / 118 40% 2 10.08.2026 -
Dodi Lukébakio Benfica Ativo 153 / 149 40% 1 10.08.2026 -
Jesús Orozco Chiquete Cruz Azul Ativo 124 / 137 40% 1 08.08.2026 -
Óscar Valentín FC Copenhagen Ativo 120 / 126 40% 1 08.08.2026 -
Ricardo Chávez Monterrey Ativo 125 / 121 40% 1 05.08.2026 -
Ramón Juárez Club America Ativo 136 / 136 40% 1 04.08.2026 -
Jhohan Romaña Leon Ativo 122 / 120 40% 1 03.08.2026 -
Amadou Onana Aston Villa Ativo 149 / 161 40% 1 03.08.2026 -
Petar Musa FC Dallas Ativo 128 / 144 40% 1 02.08.2026 -
Rafael Santos Borré River Plate Ativo 126 / 135 40% 1 02.08.2026 -